sensor_id;sensor_type;location;lat;lon;timestamp;temperature;humidity
51801;DHT22;37855;53.204;6.568;2023-04-25T00:01:29;7.10;68.50
51801;DHT22;37855;53.204;6.568;2023-04-25T00:03:55;7.10;68.00
51801;DHT22;37855;53.204;6.568;2023-04-25T00:06:21;7.00;68.50
51801;DHT22;37855;53.204;6.568;2023-04-25T00:08:47;7.00;68.40
51801;DHT22;37855;53.204;6.568;2023-04-25T00:11:13;7.00;68.50
51801;DHT22;37855;53.204;6.568;2023-04-25T00:13:38;6.90;68.60
51801;DHT22;37855;53.204;6.568;2023-04-25T00:16:07;6.90;68.90
51801;DHT22;37855;53.204;6.568;2023-04-25T00:18:33;6.90;68.80
51801;DHT22;37855;53.204;6.568;2023-04-25T00:20:59;6.90;69.00
51801;DHT22;37855;53.204;6.568;2023-04-25T00:23:24;6.90;69.10
51801;DHT22;37855;53.204;6.568;2023-04-25T00:25:50;6.90;69.10
51801;DHT22;37855;53.204;6.568;2023-04-25T00:28:18;6.90;69.20
51801;DHT22;37855;53.204;6.568;2023-04-25T00:30:44;6.90;69.20
51801;DHT22;37855;53.204;6.568;2023-04-25T00:33:10;6.90;69.50
51801;DHT22;37855;53.204;6.568;2023-04-25T00:35:36;6.90;69.80
51801;DHT22;37855;53.204;6.568;2023-04-25T00:38:04;6.90;69.60
51801;DHT22;37855;53.204;6.568;2023-04-25T00:40:30;6.90;69.00
51801;DHT22;37855;53.204;6.568;2023-04-25T00:42:58;6.90;67.80
51801;DHT22;37855;53.204;6.568;2023-04-25T00:45:28;6.90;67.30
51801;DHT22;37855;53.204;6.568;2023-04-25T00:47:54;6.80;67.30
51801;DHT22;37855;53.204;6.568;2023-04-25T00:50:21;6.80;66.70
51801;DHT22;37855;53.204;6.568;2023-04-25T00:52:47;6.80;66.50
51801;DHT22;37855;53.204;6.568;2023-04-25T00:55:12;6.80;65.80
51801;DHT22;37855;53.204;6.568;2023-04-25T00:57:39;6.80;65.80
51801;DHT22;37855;53.204;6.568;2023-04-25T01:00:06;6.80;65.60
51801;DHT22;37855;53.204;6.568;2023-04-25T01:02:33;6.70;65.30
51801;DHT22;37855;53.204;6.568;2023-04-25T01:05:01;6.70;65.20
51801;DHT22;37855;53.204;6.568;2023-04-25T01:07:26;6.70;65.40
51801;DHT22;37855;53.204;6.568;2023-04-25T01:09:52;6.70;65.20
51801;DHT22;37855;53.204;6.568;2023-04-25T01:12:18;6.70;65.00
51801;DHT22;37855;53.204;6.568;2023-04-25T01:14:44;6.70;64.80
51801;DHT22;37855;53.204;6.568;2023-04-25T01:17:11;6.70;65.00
51801;DHT22;37855;53.204;6.568;2023-04-25T01:19:37;6.70;64.30
51801;DHT22;37855;53.204;6.568;2023-04-25T01:22:03;6.70;63.20
51801;DHT22;37855;53.204;6.568;2023-04-25T01:24:33;6.70;63.10
51801;DHT22;37855;53.204;6.568;2023-04-25T01:27:00;6.70;63.20
51801;DHT22;37855;53.204;6.568;2023-04-25T01:29:27;6.70;63.50
51801;DHT22;37855;53.204;6.568;2023-04-25T01:31:53;6.60;63.40
51801;DHT22;37855;53.204;6.568;2023-04-25T01:34:20;6.70;63.00
51801;DHT22;37855;53.204;6.568;2023-04-25T01:36:48;6.70;62.40
51801;DHT22;37855;53.204;6.568;2023-04-25T01:39:15;6.70;62.40
51801;DHT22;37855;53.204;6.568;2023-04-25T01:41:41;6.60;62.10
51801;DHT22;37855;53.204;6.568;2023-04-25T01:44:07;6.60;62.60
51801;DHT22;37855;53.204;6.568;2023-04-25T01:46:33;6.70;62.20
51801;DHT22;37855;53.204;6.568;2023-04-25T01:48:59;6.60;62.20
51801;DHT22;37855;53.204;6.568;2023-04-25T01:51:25;6.60;62.60
51801;DHT22;37855;53.204;6.568;2023-04-25T01:53:50;6.60;62.90
51801;DHT22;37855;53.204;6.568;2023-04-25T01:56:18;6.60;63.40
51801;DHT22;37855;53.204;6.568;2023-04-25T01:58:44;6.60;63.70
51801;DHT22;37855;53.204;6.568;2023-04-25T02:01:10;6.60;63.90
51801;DHT22;37855;53.204;6.568;2023-04-25T02:03:36;6.60;64.40
51801;DHT22;37855;53.204;6.568;2023-04-25T02:06:01;6.60;64.70
51801;DHT22;37855;53.204;6.568;2023-04-25T02:08:27;6.50;65.00
51801;DHT22;37855;53.204;6.568;2023-04-25T02:10:53;6.50;65.00
51801;DHT22;37855;53.204;6.568;2023-04-25T02:13:21;6.50;64.60
51801;DHT22;37855;53.204;6.568;2023-04-25T02:15:47;6.50;65.00
51801;DHT22;37855;53.204;6.568;2023-04-25T02:18:13;6.40;65.20
51801;DHT22;37855;53.204;6.568;2023-04-25T02:20:42;6.40;65.10
51801;DHT22;37855;53.204;6.568;2023-04-25T02:23:07;6.40;64.90
51801;DHT22;37855;53.204;6.568;2023-04-25T02:25:33;6.40;64.90
51801;DHT22;37855;53.204;6.568;2023-04-25T02:27:58;6.40;64.90
51801;DHT22;37855;53.204;6.568;2023-04-25T02:30:24;6.50;64.70
51801;DHT22;37855;53.204;6.568;2023-04-25T02:32:50;6.40;64.80
51801;DHT22;37855;53.204;6.568;2023-04-25T02:35:16;6.40;65.00
51801;DHT22;37855;53.204;6.568;2023-04-25T02:37:42;6.30;65.30
51801;DHT22;37855;53.204;6.568;2023-04-25T02:40:08;6.30;65.70
51801;DHT22;37855;53.204;6.568;2023-04-25T02:42:34;6.30;65.90
51801;DHT22;37855;53.204;6.568;2023-04-25T02:45:00;6.30;66.00
51801;DHT22;37855;53.204;6.568;2023-04-25T02:47:26;6.20;66.10
51801;DHT22;37855;53.204;6.568;2023-04-25T02:49:52;6.20;66.30
51801;DHT22;37855;53.204;6.568;2023-04-25T02:52:17;6.20;66.30
51801;DHT22;37855;53.204;6.568;2023-04-25T02:54:43;6.10;66.60
51801;DHT22;37855;53.204;6.568;2023-04-25T02:57:09;6.20;66.80
51801;DHT22;37855;53.204;6.568;2023-04-25T02:59:34;6.10;66.80
51801;DHT22;37855;53.204;6.568;2023-04-25T03:02:00;6.10;66.80
51801;DHT22;37855;53.204;6.568;2023-04-25T03:04:26;6.10;66.70
51801;DHT22;37855;53.204;6.568;2023-04-25T03:06:52;6.00;66.90
51801;DHT22;37855;53.204;6.568;2023-04-25T03:09:18;6.00;66.90
51801;DHT22;37855;53.204;6.568;2023-04-25T03:11:45;6.00;67.10
51801;DHT22;37855;53.204;6.568;2023-04-25T03:14:11;6.00;67.20
51801;DHT22;37855;53.204;6.568;2023-04-25T03:16:37;6.00;67.10
51801;DHT22;37855;53.204;6.568;2023-04-25T03:19:03;6.00;67.20
51801;DHT22;37855;53.204;6.568;2023-04-25T03:21:30;6.00;67.40
51801;DHT22;37855;53.204;6.568;2023-04-25T03:23:57;5.90;67.40
51801;DHT22;37855;53.204;6.568;2023-04-25T03:26:23;5.90;67.40
51801;DHT22;37855;53.204;6.568;2023-04-25T03:28:49;5.90;67.20
51801;DHT22;37855;53.204;6.568;2023-04-25T03:31:15;5.90;67.10
51801;DHT22;37855;53.204;6.568;2023-04-25T03:33:40;5.90;67.10
51801;DHT22;37855;53.204;6.568;2023-04-25T03:36:06;5.80;66.90
51801;DHT22;37855;53.204;6.568;2023-04-25T03:38:32;5.80;66.80
51801;DHT22;37855;53.204;6.568;2023-04-25T03:40:58;5.80;66.00
51801;DHT22;37855;53.204;6.568;2023-04-25T03:43:23;5.80;66.20
51801;DHT22;37855;53.204;6.568;2023-04-25T03:45:49;5.80;66.10
51801;DHT22;37855;53.204;6.568;2023-04-25T03:48:15;5.80;65.60
51801;DHT22;37855;53.204;6.568;2023-04-25T03:50:40;5.80;65.00
51801;DHT22;37855;53.204;6.568;2023-04-25T03:53:06;5.80;64.90
51801;DHT22;37855;53.204;6.568;2023-04-25T03:55:32;5.70;64.90
51801;DHT22;37855;53.204;6.568;2023-04-25T03:57:58;5.70;64.40
51801;DHT22;37855;53.204;6.568;2023-04-25T04:00:24;5.70;64.40
51801;DHT22;37855;53.204;6.568;2023-04-25T04:02:50;5.80;63.90
51801;DHT22;37855;53.204;6.568;2023-04-25T04:05:19;5.70;63.90
51801;DHT22;37855;53.204;6.568;2023-04-25T04:07:45;5.70;64.10
51801;DHT22;37855;53.204;6.568;2023-04-25T04:10:10;5.70;64.20
51801;DHT22;37855;53.204;6.568;2023-04-25T04:12:39;5.60;64.60
51801;DHT22;37855;53.204;6.568;2023-04-25T04:15:05;5.50;65.10
51801;DHT22;37855;53.204;6.568;2023-04-25T04:17:32;5.50;65.40
51801;DHT22;37855;53.204;6.568;2023-04-25T04:19:57;5.50;65.70
51801;DHT22;37855;53.204;6.568;2023-04-25T04:22:24;5.50;65.90
51801;DHT22;37855;53.204;6.568;2023-04-25T04:24:49;5.50;66.20
51801;DHT22;37855;53.204;6.568;2023-04-25T04:27:19;5.50;66.30
51801;DHT22;37855;53.204;6.568;2023-04-25T04:29:46;5.50;66.60
51801;DHT22;37855;53.204;6.568;2023-04-25T04:32:12;5.50;66.80
51801;DHT22;37855;53.204;6.568;2023-04-25T04:34:38;5.50;67.00
51801;DHT22;37855;53.204;6.568;2023-04-25T04:37:05;5.40;67.20
51801;DHT22;37855;53.204;6.568;2023-04-25T04:39:35;5.40;67.40
51801;DHT22;37855;53.204;6.568;2023-04-25T04:42:01;5.40;67.50
51801;DHT22;37855;53.204;6.568;2023-04-25T04:44:27;5.40;67.70
51801;DHT22;37855;53.204;6.568;2023-04-25T04:46:54;5.50;67.60
51801;DHT22;37855;53.204;6.568;2023-04-25T04:49:20;5.50;67.70
51801;DHT22;37855;53.204;6.568;2023-04-25T04:51:46;5.50;67.70
51801;DHT22;37855;53.204;6.568;2023-04-25T04:54:13;5.50;67.50
51801;DHT22;37855;53.204;6.568;2023-04-25T04:56:38;5.60;67.30
51801;DHT22;37855;53.204;6.568;2023-04-25T04:59:04;5.60;67.00
51801;DHT22;37855;53.204;6.568;2023-04-25T05:01:30;5.60;66.90
51801;DHT22;37855;53.204;6.568;2023-04-25T05:03:56;5.60;67.10
51801;DHT22;37855;53.204;6.568;2023-04-25T05:06:26;5.60;66.80
51801;DHT22;37855;53.204;6.568;2023-04-25T05:08:52;5.60;66.20
51801;DHT22;37855;53.204;6.568;2023-04-25T05:11:19;5.60;66.60
51801;DHT22;37855;53.204;6.568;2023-04-25T05:13:44;5.60;67.50
51801;DHT22;37855;53.204;6.568;2023-04-25T05:16:11;5.50;67.90
51801;DHT22;37855;53.204;6.568;2023-04-25T05:18:37;5.50;68.80
51801;DHT22;37855;53.204;6.568;2023-04-25T05:21:03;5.40;69.10
51801;DHT22;37855;53.204;6.568;2023-04-25T05:23:30;5.30;69.40
51801;DHT22;37855;53.204;6.568;2023-04-25T05:25:56;5.30;69.40
51801;DHT22;37855;53.204;6.568;2023-04-25T05:28:22;5.30;69.40
51801;DHT22;37855;53.204;6.568;2023-04-25T05:30:48;5.30;69.20
51801;DHT22;37855;53.204;6.568;2023-04-25T05:33:13;5.30;69.00
51801;DHT22;37855;53.204;6.568;2023-04-25T05:35:39;5.40;69.10
51801;DHT22;37855;53.204;6.568;2023-04-25T05:38:05;5.40;69.10
51801;DHT22;37855;53.204;6.568;2023-04-25T05:40:31;5.50;68.60
51801;DHT22;37855;53.204;6.568;2023-04-25T05:42:56;5.60;68.40
51801;DHT22;37855;53.204;6.568;2023-04-25T05:45:22;5.60;67.90
51801;DHT22;37855;53.204;6.568;2023-04-25T05:47:48;5.60;68.00
51801;DHT22;37855;53.204;6.568;2023-04-25T05:50:14;5.70;68.10
51801;DHT22;37855;53.204;6.568;2023-04-25T05:52:39;5.80;68.10
51801;DHT22;37855;53.204;6.568;2023-04-25T05:55:05;5.80;68.00
51801;DHT22;37855;53.204;6.568;2023-04-25T05:57:31;5.80;68.20
51801;DHT22;37855;53.204;6.568;2023-04-25T05:59:57;5.80;68.30
51801;DHT22;37855;53.204;6.568;2023-04-25T06:02:26;5.80;68.10
51801;DHT22;37855;53.204;6.568;2023-04-25T06:04:52;5.90;66.80
51801;DHT22;37855;53.204;6.568;2023-04-25T06:07:18;5.90;66.90
51801;DHT22;37855;53.204;6.568;2023-04-25T06:09:45;5.90;66.60
51801;DHT22;37855;53.204;6.568;2023-04-25T06:12:10;5.80;65.80
51801;DHT22;37855;53.204;6.568;2023-04-25T06:14:36;5.80;65.90
51801;DHT22;37855;53.204;6.568;2023-04-25T06:17:03;5.80;65.90
51801;DHT22;37855;53.204;6.568;2023-04-25T06:19:34;5.80;66.00
51801;DHT22;37855;53.204;6.568;2023-04-25T06:22:01;5.80;66.00
51801;DHT22;37855;53.204;6.568;2023-04-25T06:24:26;5.80;66.30
51801;DHT22;37855;53.204;6.568;2023-04-25T06:26:52;5.80;66.40
51801;DHT22;37855;53.204;6.568;2023-04-25T06:29:18;5.90;66.40
51801;DHT22;37855;53.204;6.568;2023-04-25T06:31:44;6.00;66.50
51801;DHT22;37855;53.204;6.568;2023-04-25T06:34:09;6.20;66.50
51801;DHT22;37855;53.204;6.568;2023-04-25T06:36:38;6.30;66.40
51801;DHT22;37855;53.204;6.568;2023-04-25T06:39:03;6.50;66.20
51801;DHT22;37855;53.204;6.568;2023-04-25T06:41:29;6.60;66.00
51801;DHT22;37855;53.204;6.568;2023-04-25T06:43:55;6.70;66.00
51801;DHT22;37855;53.204;6.568;2023-04-25T06:46:20;6.80;65.50
51801;DHT22;37855;53.204;6.568;2023-04-25T06:48:46;6.90;64.90
51801;DHT22;37855;53.204;6.568;2023-04-25T06:51:12;7.00;64.60
51801;DHT22;37855;53.204;6.568;2023-04-25T06:53:39;7.00;63.90
51801;DHT22;37855;53.204;6.568;2023-04-25T06:56:05;7.10;63.90
51801;DHT22;37855;53.204;6.568;2023-04-25T06:58:31;7.10;64.40
51801;DHT22;37855;53.204;6.568;2023-04-25T07:00:57;7.00;64.90
51801;DHT22;37855;53.204;6.568;2023-04-25T07:03:22;7.00;63.40
51801;DHT22;37855;53.204;6.568;2023-04-25T07:05:49;7.00;61.90
51801;DHT22;37855;53.204;6.568;2023-04-25T07:08:15;6.90;61.20
51801;DHT22;37855;53.204;6.568;2023-04-25T07:10:41;6.90;61.20
51801;DHT22;37855;53.204;6.568;2023-04-25T07:13:06;7.00;61.80
51801;DHT22;37855;53.204;6.568;2023-04-25T07:15:32;7.10;61.90
51801;DHT22;37855;53.204;6.568;2023-04-25T07:17:58;7.10;61.70
51801;DHT22;37855;53.204;6.568;2023-04-25T07:20:24;7.20;60.80
51801;DHT22;37855;53.204;6.568;2023-04-25T07:22:50;7.20;61.30
51801;DHT22;37855;53.204;6.568;2023-04-25T07:25:17;7.30;60.00
51801;DHT22;37855;53.204;6.568;2023-04-25T07:27:42;7.30;60.20
51801;DHT22;37855;53.204;6.568;2023-04-25T07:30:08;7.30;60.30
51801;DHT22;37855;53.204;6.568;2023-04-25T07:32:34;7.40;60.10
51801;DHT22;37855;53.204;6.568;2023-04-25T07:35:00;7.30;59.90
51801;DHT22;37855;53.204;6.568;2023-04-25T07:37:27;7.40;59.80
51801;DHT22;37855;53.204;6.568;2023-04-25T07:39:52;7.40;59.90
51801;DHT22;37855;53.204;6.568;2023-04-25T07:42:18;7.40;60.00
51801;DHT22;37855;53.204;6.568;2023-04-25T07:44:44;7.40;60.00
51801;DHT22;37855;53.204;6.568;2023-04-25T07:47:09;7.40;60.40
51801;DHT22;37855;53.204;6.568;2023-04-25T07:49:36;7.50;60.50
51801;DHT22;37855;53.204;6.568;2023-04-25T07:52:03;7.40;59.70
51801;DHT22;37855;53.204;6.568;2023-04-25T07:54:32;7.20;58.70
51801;DHT22;37855;53.204;6.568;2023-04-25T07:56:58;7.20;59.10
51801;DHT22;37855;53.204;6.568;2023-04-25T07:59:24;7.10;59.30
51801;DHT22;37855;53.204;6.568;2023-04-25T08:01:50;7.20;59.00
51801;DHT22;37855;53.204;6.568;2023-04-25T08:04:16;7.30;58.40
51801;DHT22;37855;53.204;6.568;2023-04-25T08:06:42;7.40;58.20
51801;DHT22;37855;53.204;6.568;2023-04-25T08:09:09;7.50;58.20
51801;DHT22;37855;53.204;6.568;2023-04-25T08:11:35;7.50;59.00
51801;DHT22;37855;53.204;6.568;2023-04-25T08:14:01;7.40;60.40
51801;DHT22;37855;53.204;6.568;2023-04-25T08:16:27;7.20;61.60
51801;DHT22;37855;53.204;6.568;2023-04-25T08:18:53;6.90;63.20
51801;DHT22;37855;53.204;6.568;2023-04-25T08:21:19;6.60;64.30
51801;DHT22;37855;53.204;6.568;2023-04-25T08:23:44;6.40;64.60
51801;DHT22;37855;53.204;6.568;2023-04-25T08:26:10;6.20;64.80
51801;DHT22;37855;53.204;6.568;2023-04-25T08:28:36;6.10;64.80
51801;DHT22;37855;53.204;6.568;2023-04-25T08:31:04;6.10;63.90
51801;DHT22;37855;53.204;6.568;2023-04-25T08:33:33;6.10;64.30
51801;DHT22;37855;53.204;6.568;2023-04-25T08:35:58;6.10;64.60
51801;DHT22;37855;53.204;6.568;2023-04-25T08:38:24;6.20;64.80
51801;DHT22;37855;53.204;6.568;2023-04-25T08:40:50;6.20;64.70
51801;DHT22;37855;53.204;6.568;2023-04-25T08:43:20;6.30;64.10
51801;DHT22;37855;53.204;6.568;2023-04-25T08:45:46;6.30;63.30
51801;DHT22;37855;53.204;6.568;2023-04-25T08:48:13;6.40;62.20
51801;DHT22;37855;53.204;6.568;2023-04-25T08:50:50;6.50;61.70
51801;DHT22;37855;53.204;6.568;2023-04-25T08:53:17;6.60;61.10
51801;DHT22;37855;53.204;6.568;2023-04-25T08:55:45;6.70;61.50
51801;DHT22;37855;53.204;6.568;2023-04-25T08:58:12;6.80;61.30
51801;DHT22;37855;53.204;6.568;2023-04-25T09:00:38;6.80;62.00
51801;DHT22;37855;53.204;6.568;2023-04-25T09:03:04;7.00;61.80
51801;DHT22;37855;53.204;6.568;2023-04-25T09:05:32;7.20;61.90
51801;DHT22;37855;53.204;6.568;2023-04-25T09:07:57;7.40;61.60
51801;DHT22;37855;53.204;6.568;2023-04-25T09:10:23;7.50;60.00
51801;DHT22;37855;53.204;6.568;2023-04-25T09:13:44;7.70;60.00
51801;DHT22;37855;53.204;6.568;2023-04-25T09:15:56;7.80;60.10
51801;DHT22;37855;53.204;6.568;2023-04-25T09:20:52;8.20;60.30
51801;DHT22;37855;53.204;6.568;2023-04-25T09:23:19;8.30;60.50
51801;DHT22;37855;53.204;6.568;2023-04-25T09:25:51;8.50;60.90
51801;DHT22;37855;53.204;6.568;2023-04-25T09:28:25;8.50;60.40
51801;DHT22;37855;53.204;6.568;2023-04-25T09:30:55;8.50;60.50
51801;DHT22;37855;53.204;6.568;2023-04-25T09:33:28;8.60;58.80
51801;DHT22;37855;53.204;6.568;2023-04-25T09:36:10;8.30;59.40
51801;DHT22;37855;53.204;6.568;2023-04-25T09:38:44;8.00;60.50
51801;DHT22;37855;53.204;6.568;2023-04-25T09:41:10;7.60;61.50
51801;DHT22;37855;53.204;6.568;2023-04-25T09:43:38;7.50;62.10
51801;DHT22;37855;53.204;6.568;2023-04-25T09:46:13;7.40;62.00
51801;DHT22;37855;53.204;6.568;2023-04-25T09:48:39;7.60;61.00
51801;DHT22;37855;53.204;6.568;2023-04-25T09:51:13;7.70;59.70
51801;DHT22;37855;53.204;6.568;2023-04-25T09:53:40;7.90;57.90
51801;DHT22;37855;53.204;6.568;2023-04-25T09:56:09;8.00;57.50
51801;DHT22;37855;53.204;6.568;2023-04-25T09:58:37;8.00;57.60
51801;DHT22;37855;53.204;6.568;2023-04-25T10:01:05;8.00;57.60
51801;DHT22;37855;53.204;6.568;2023-04-25T10:03:33;8.00;58.30
51801;DHT22;37855;53.204;6.568;2023-04-25T10:06:03;8.10;58.80
51801;DHT22;37855;53.204;6.568;2023-04-25T10:08:35;8.30;57.70
51801;DHT22;37855;53.204;6.568;2023-04-25T10:11:04;8.50;57.80
51801;DHT22;37855;53.204;6.568;2023-04-25T10:13:31;8.60;58.30
51801;DHT22;37855;53.204;6.568;2023-04-25T10:16:02;8.70;57.60
51801;DHT22;37855;53.204;6.568;2023-04-25T10:18:29;8.80;57.40
51801;DHT22;37855;53.204;6.568;2023-04-25T10:20:56;8.80;58.30
51801;DHT22;37855;53.204;6.568;2023-04-25T10:23:23;8.70;59.60
51801;DHT22;37855;53.204;6.568;2023-04-25T10:25:50;8.50;60.30
51801;DHT22;37855;53.204;6.568;2023-04-25T10:28:17;8.30;60.60
51801;DHT22;37855;53.204;6.568;2023-04-25T10:31:03;8.10;60.90
51801;DHT22;37855;53.204;6.568;2023-04-25T10:36:21;8.10;60.70
51801;DHT22;37855;53.204;6.568;2023-04-25T10:38:48;8.30;60.40
51801;DHT22;37855;53.204;6.568;2023-04-25T10:41:18;8.40;59.40
51801;DHT22;37855;53.204;6.568;2023-04-25T10:43:49;8.40;59.80
51801;DHT22;37855;53.204;6.568;2023-04-25T10:46:23;8.50;60.20
51801;DHT22;37855;53.204;6.568;2023-04-25T10:48:53;8.50;59.60
51801;DHT22;37855;53.204;6.568;2023-04-25T10:51:37;8.40;58.90
51801;DHT22;37855;53.204;6.568;2023-04-25T10:54:05;8.00;61.20
51801;DHT22;37855;53.204;6.568;2023-04-25T10:56:33;7.70;62.10
51801;DHT22;37855;53.204;6.568;2023-04-25T10:59:18;7.50;62.00
51801;DHT22;37855;53.204;6.568;2023-04-25T11:01:51;7.40;62.60
51801;DHT22;37855;53.204;6.568;2023-04-25T11:09:39;7.70;62.40
51801;DHT22;37855;53.204;6.568;2023-04-25T11:12:07;7.90;61.70
51801;DHT22;37855;53.204;6.568;2023-04-25T11:14:33;8.10;60.10
51801;DHT22;37855;53.204;6.568;2023-04-25T11:17:00;8.20;58.40
51801;DHT22;37855;53.204;6.568;2023-04-25T11:19:27;8.20;58.80
51801;DHT22;37855;53.204;6.568;2023-04-25T11:21:58;8.40;57.70
51801;DHT22;37855;53.204;6.568;2023-04-25T11:24:31;8.50;57.80
51801;DHT22;37855;53.204;6.568;2023-04-25T11:27:01;8.70;55.90
51801;DHT22;37855;53.204;6.568;2023-04-25T11:29:32;8.80;56.10
51801;DHT22;37855;53.204;6.568;2023-04-25T11:31:58;8.90;55.20
51801;DHT22;37855;53.204;6.568;2023-04-25T11:34:26;8.90;54.70
51801;DHT22;37855;53.204;6.568;2023-04-25T11:36:52;8.90;55.40
51801;DHT22;37855;53.204;6.568;2023-04-25T11:39:21;8.90;55.30
51801;DHT22;37855;53.204;6.568;2023-04-25T11:41:47;8.90;53.80
51801;DHT22;37855;53.204;6.568;2023-04-25T11:44:18;8.90;54.00
51801;DHT22;37855;53.204;6.568;2023-04-25T11:46:45;8.90;55.30
51801;DHT22;37855;53.204;6.568;2023-04-25T11:49:11;8.90;54.50
51801;DHT22;37855;53.204;6.568;2023-04-25T11:51:47;8.90;54.60
51801;DHT22;37855;53.204;6.568;2023-04-25T11:54:13;9.00;54.40
51801;DHT22;37855;53.204;6.568;2023-04-25T11:56:43;9.10;53.20
51801;DHT22;37855;53.204;6.568;2023-04-25T11:59:09;9.10;53.20
51801;DHT22;37855;53.204;6.568;2023-04-25T12:01:38;9.10;53.40
51801;DHT22;37855;53.204;6.568;2023-04-25T12:04:16;9.00;53.80
51801;DHT22;37855;53.204;6.568;2023-04-25T12:06:43;9.10;54.10
51801;DHT22;37855;53.204;6.568;2023-04-25T12:09:12;9.30;52.90
51801;DHT22;37855;53.204;6.568;2023-04-25T12:11:45;9.40;52.60
51801;DHT22;37855;53.204;6.568;2023-04-25T12:14:12;9.40;53.10
51801;DHT22;37855;53.204;6.568;2023-04-25T12:16:46;9.30;53.50
51801;DHT22;37855;53.204;6.568;2023-04-25T12:19:16;9.10;54.40
51801;DHT22;37855;53.204;6.568;2023-04-25T12:21:43;9.00;54.90
51801;DHT22;37855;53.204;6.568;2023-04-25T12:24:33;9.00;54.00
51801;DHT22;37855;53.204;6.568;2023-04-25T12:27:04;9.10;54.30
51801;DHT22;37855;53.204;6.568;2023-04-25T12:29:32;9.40;53.90
51801;DHT22;37855;53.204;6.568;2023-04-25T12:31:58;9.50;51.90
51801;DHT22;37855;53.204;6.568;2023-04-25T12:34:25;9.60;51.90
51801;DHT22;37855;53.204;6.568;2023-04-25T12:36:51;9.50;53.00
51801;DHT22;37855;53.204;6.568;2023-04-25T12:39:19;9.60;54.80
51801;DHT22;37855;53.204;6.568;2023-04-25T12:41:45;9.60;54.50
51801;DHT22;37855;53.204;6.568;2023-04-25T12:44:15;9.60;53.50
51801;DHT22;37855;53.204;6.568;2023-04-25T12:46:41;9.60;52.60
51801;DHT22;37855;53.204;6.568;2023-04-25T12:49:10;9.70;52.10
51801;DHT22;37855;53.204;6.568;2023-04-25T12:51:36;9.70;51.50
51801;DHT22;37855;53.204;6.568;2023-04-25T12:54:03;9.70;51.70
51801;DHT22;37855;53.204;6.568;2023-04-25T12:56:30;9.90;49.90
51801;DHT22;37855;53.204;6.568;2023-04-25T12:58:57;9.90;50.10
51801;DHT22;37855;53.204;6.568;2023-04-25T13:01:23;10.00;51.10
51801;DHT22;37855;53.204;6.568;2023-04-25T13:03:50;10.10;52.00
51801;DHT22;37855;53.204;6.568;2023-04-25T13:06:17;10.20;51.70
51801;DHT22;37855;53.204;6.568;2023-04-25T13:08:43;10.10;50.50
51801;DHT22;37855;53.204;6.568;2023-04-25T13:11:09;10.00;52.10
51801;DHT22;37855;53.204;6.568;2023-04-25T13:13:35;9.80;53.10
51801;DHT22;37855;53.204;6.568;2023-04-25T13:16:02;9.60;52.60
51801;DHT22;37855;53.204;6.568;2023-04-25T13:18:29;9.50;52.20
51801;DHT22;37855;53.204;6.568;2023-04-25T13:20:56;9.40;52.70
51801;DHT22;37855;53.204;6.568;2023-04-25T13:23:27;9.20;53.50
51801;DHT22;37855;53.204;6.568;2023-04-25T13:25:54;9.10;54.70
51801;DHT22;37855;53.204;6.568;2023-04-25T13:28:20;9.30;54.50
51801;DHT22;37855;53.204;6.568;2023-04-25T13:30:47;9.40;53.60
51801;DHT22;37855;53.204;6.568;2023-04-25T13:33:14;9.60;53.80
51801;DHT22;37855;53.204;6.568;2023-04-25T13:35:40;9.60;52.30
51801;DHT22;37855;53.204;6.568;2023-04-25T13:38:06;9.60;53.00
51801;DHT22;37855;53.204;6.568;2023-04-25T13:40:32;9.70;54.00
51801;DHT22;37855;53.204;6.568;2023-04-25T13:42:58;9.70;53.30
51801;DHT22;37855;53.204;6.568;2023-04-25T13:45:24;9.70;53.50
51801;DHT22;37855;53.204;6.568;2023-04-25T13:47:50;9.70;52.40
51801;DHT22;37855;53.204;6.568;2023-04-25T13:50:16;9.70;53.00
51801;DHT22;37855;53.204;6.568;2023-04-25T13:52:42;9.80;52.50
51801;DHT22;37855;53.204;6.568;2023-04-25T13:55:09;9.90;51.40
51801;DHT22;37855;53.204;6.568;2023-04-25T13:57:35;9.90;50.00
51801;DHT22;37855;53.204;6.568;2023-04-25T14:00:03;9.80;50.30
51801;DHT22;37855;53.204;6.568;2023-04-25T14:02:38;9.80;50.60
51801;DHT22;37855;53.204;6.568;2023-04-25T14:05:04;9.80;51.80
51801;DHT22;37855;53.204;6.568;2023-04-25T14:07:30;9.80;52.30
51801;DHT22;37855;53.204;6.568;2023-04-25T14:09:56;9.70;52.70
51801;DHT22;37855;53.204;6.568;2023-04-25T14:12:27;9.80;53.30
51801;DHT22;37855;53.204;6.568;2023-04-25T14:14:53;9.70;52.70
51801;DHT22;37855;53.204;6.568;2023-04-25T14:17:19;9.70;52.90
51801;DHT22;37855;53.204;6.568;2023-04-25T14:19:45;9.50;53.20
51801;DHT22;37855;53.204;6.568;2023-04-25T14:22:11;9.50;54.40
51801;DHT22;37855;53.204;6.568;2023-04-25T14:24:37;9.40;54.20
51801;DHT22;37855;53.204;6.568;2023-04-25T14:27:03;9.40;52.90
51801;DHT22;37855;53.204;6.568;2023-04-25T14:29:29;9.40;52.50
51801;DHT22;37855;53.204;6.568;2023-04-25T14:31:55;9.50;51.70
51801;DHT22;37855;53.204;6.568;2023-04-25T14:34:23;9.60;50.90
51801;DHT22;37855;53.204;6.568;2023-04-25T14:36:48;9.60;50.70
51801;DHT22;37855;53.204;6.568;2023-04-25T14:39:14;9.60;50.80
51801;DHT22;37855;53.204;6.568;2023-04-25T14:41:40;9.60;51.30
51801;DHT22;37855;53.204;6.568;2023-04-25T14:44:05;9.60;51.50
51801;DHT22;37855;53.204;6.568;2023-04-25T14:46:31;9.70;51.60
51801;DHT22;37855;53.204;6.568;2023-04-25T14:48:57;9.70;52.10
51801;DHT22;37855;53.204;6.568;2023-04-25T14:51:23;9.80;53.70
51801;DHT22;37855;53.204;6.568;2023-04-25T14:53:48;9.60;54.50
51801;DHT22;37855;53.204;6.568;2023-04-25T14:56:15;9.30;55.10
51801;DHT22;37855;53.204;6.568;2023-04-25T14:58:41;9.10;55.30
51801;DHT22;37855;53.204;6.568;2023-04-25T15:01:06;9.00;55.10
51801;DHT22;37855;53.204;6.568;2023-04-25T15:03:33;9.10;55.20
51801;DHT22;37855;53.204;6.568;2023-04-25T15:05:59;9.30;55.10
51801;DHT22;37855;53.204;6.568;2023-04-25T15:08:25;9.40;54.30
51801;DHT22;37855;53.204;6.568;2023-04-25T15:10:51;9.60;52.80
51801;DHT22;37855;53.204;6.568;2023-04-25T15:13:18;9.60;51.70
51801;DHT22;37855;53.204;6.568;2023-04-25T15:15:44;9.60;51.80
51801;DHT22;37855;53.204;6.568;2023-04-25T15:18:22;9.50;52.90
51801;DHT22;37855;53.204;6.568;2023-04-25T15:20:52;9.60;53.00
51801;DHT22;37855;53.204;6.568;2023-04-25T15:23:19;9.50;53.10
51801;DHT22;37855;53.204;6.568;2023-04-25T15:25:46;9.50;52.00
51801;DHT22;37855;53.204;6.568;2023-04-25T15:28:11;9.50;52.30
51801;DHT22;37855;53.204;6.568;2023-04-25T15:30:40;9.50;52.90
51801;DHT22;37855;53.204;6.568;2023-04-25T15:33:06;9.50;52.70
51801;DHT22;37855;53.204;6.568;2023-04-25T15:35:31;9.50;50.90
51801;DHT22;37855;53.204;6.568;2023-04-25T15:37:57;9.40;50.70
51801;DHT22;37855;53.204;6.568;2023-04-25T15:40:23;9.30;51.00
51801;DHT22;37855;53.204;6.568;2023-04-25T15:42:50;9.30;51.70
51801;DHT22;37855;53.204;6.568;2023-04-25T15:45:16;9.30;52.00
51801;DHT22;37855;53.204;6.568;2023-04-25T15:47:42;9.40;52.50
51801;DHT22;37855;53.204;6.568;2023-04-25T15:50:09;9.40;52.30
51801;DHT22;37855;53.204;6.568;2023-04-25T15:52:37;9.40;51.30
51801;DHT22;37855;53.204;6.568;2023-04-25T15:55:04;9.30;51.60